createdAt,value
2018-02-16T00:02:21.233Z,28.17
2018-02-16T00:04:48.720Z,27.10
2018-02-16T00:07:16.209Z,29.40
2018-02-16T00:09:43.695Z,28.67
2018-02-16T00:12:11.137Z,29.30
2018-02-16T00:14:38.607Z,28.90
2018-02-16T00:17:06.052Z,29.80
2018-02-16T00:19:33.503Z,28.50
2018-02-16T00:22:00.912Z,27.80
2018-02-16T00:24:28.374Z,28.47
2018-02-16T00:26:55.788Z,28.33
2018-02-16T00:29:23.273Z,27.87
2018-02-16T00:31:50.695Z,29.00
2018-02-16T00:34:18.154Z,28.23
2018-02-16T00:36:45.610Z,27.87
2018-02-16T00:39:13.041Z,27.80
2018-02-16T00:41:40.489Z,29.07
2018-02-16T00:44:07.957Z,30.97
2018-02-16T00:46:35.438Z,26.60
2018-02-16T00:49:02.883Z,26.70
2018-02-16T00:51:30.307Z,29.80
2018-02-16T00:53:57.719Z,29.40
2018-02-16T00:56:25.153Z,29.53
2018-02-16T00:58:52.582Z,27.80
2018-02-16T01:01:20.032Z,27.93
2018-02-16T01:03:47.474Z,27.33
2018-02-16T01:06:14.913Z,29.20
2018-02-16T01:08:42.340Z,29.80
2018-02-16T01:11:09.776Z,27.03
2018-02-16T01:13:37.226Z,28.30
2018-02-16T01:16:04.652Z,26.67
2018-02-16T01:18:32.129Z,28.07
2018-02-16T01:23:41.398Z,29.60
2018-02-16T01:26:08.829Z,29.20
2018-02-16T01:28:36.253Z,29.00
2018-02-16T01:31:03.898Z,28.50
2018-02-16T01:33:31.342Z,27.23
2018-02-16T01:35:58.763Z,27.97
2018-02-16T01:38:26.282Z,29.27
2018-02-16T01:40:53.709Z,28.57
2018-02-16T01:43:21.182Z,28.30
2018-02-16T01:45:48.584Z,30.27
2018-02-16T01:48:16.043Z,31.00
2018-02-16T01:50:43.458Z,29.30
2018-02-16T01:53:10.866Z,28.07
2018-02-16T01:55:38.319Z,27.90
2018-02-16T01:58:05.806Z,28.10
2018-02-16T02:00:33.183Z,28.17
2018-02-16T02:03:00.620Z,28.80
2018-02-16T02:05:28.066Z,28.27
2018-02-16T02:07:55.490Z,26.63
2018-02-16T02:10:22.954Z,26.77
2018-02-16T02:12:50.367Z,26.50
2018-02-16T02:15:17.809Z,28.87
2018-02-16T02:17:45.327Z,28.30
2018-02-16T02:20:12.835Z,27.20
2018-02-16T02:22:40.233Z,27.93
2018-02-16T02:25:07.697Z,28.43
2018-02-16T02:27:35.112Z,28.27
2018-02-16T02:30:02.616Z,28.93
2018-02-16T02:32:30.049Z,25.43
2018-02-16T02:34:57.486Z,26.83
2018-02-16T02:37:24.934Z,27.40
2018-02-16T02:39:52.371Z,27.73
2018-02-16T02:42:19.826Z,29.00
2018-02-16T02:44:47.272Z,27.37
2018-02-16T02:47:14.703Z,29.10
2018-02-16T02:49:42.112Z,28.43
2018-02-16T02:52:09.562Z,28.87
2018-02-16T02:54:36.974Z,27.70
2018-02-16T02:57:04.441Z,33.93
2018-02-16T02:59:31.850Z,29.43
2018-02-16T03:01:59.290Z,27.30
2018-02-16T03:04:26.725Z,26.57
2018-02-16T03:06:54.136Z,27.70
2018-02-16T03:09:21.571Z,26.90
2018-02-16T03:11:48.992Z,30.30
2018-02-16T03:14:16.436Z,27.33
2018-02-16T03:16:43.926Z,28.27
2018-02-16T03:19:11.373Z,28.43
2018-02-16T03:21:39.127Z,27.97
2018-02-16T03:24:06.579Z,29.00
2018-02-16T03:26:34.044Z,29.57
2018-02-16T03:29:01.517Z,27.73
2018-02-16T03:31:28.964Z,30.93
2018-02-16T03:33:56.416Z,33.00
2018-02-16T03:36:23.852Z,28.67
2018-02-16T03:38:51.322Z,33.83
2018-02-16T03:41:18.724Z,31.60
2018-02-16T03:43:46.157Z,31.07
2018-02-16T03:46:13.597Z,30.30
2018-02-16T03:48:41.042Z,30.87
2018-02-16T03:51:08.472Z,29.90
2018-02-16T03:53:35.905Z,29.90
2018-02-16T03:56:03.325Z,29.43
2018-02-16T03:58:30.777Z,29.60
2018-02-16T04:00:58.187Z,30.03
2018-02-16T04:03:25.620Z,29.93
2018-02-16T04:05:53.056Z,29.87
2018-02-16T04:08:20.470Z,29.80
2018-02-16T04:10:47.921Z,29.23
2018-02-16T04:13:15.344Z,29.40
2018-02-16T04:15:42.794Z,30.33
2018-02-16T04:18:10.232Z,28.70
2018-02-16T04:20:37.803Z,28.40
2018-02-16T04:23:05.244Z,29.70
2018-02-16T04:25:32.810Z,30.70
2018-02-16T04:28:00.357Z,30.73
2018-02-16T04:30:27.808Z,28.93
2018-02-16T04:32:55.267Z,31.00
2018-02-16T04:35:22.676Z,32.60
2018-02-16T04:37:50.124Z,36.03
2018-02-16T04:40:17.562Z,30.30
2018-02-16T04:42:45.017Z,30.37
2018-02-16T04:45:12.448Z,39.00
2018-02-16T04:47:39.931Z,34.40
2018-02-16T04:50:07.362Z,41.90
2018-02-16T04:52:34.837Z,34.80
2018-02-16T04:55:02.276Z,36.87
2018-02-16T04:57:29.737Z,33.53
2018-02-16T04:59:57.146Z,33.80
2018-02-16T05:02:24.583Z,40.50
2018-02-16T05:04:51.997Z,33.37
2018-02-16T05:07:19.472Z,36.40
2018-02-16T05:09:46.930Z,32.50
2018-02-16T05:12:14.386Z,33.27
2018-02-16T05:14:41.839Z,32.23
2018-02-16T05:17:09.258Z,36.33
2018-02-16T05:19:36.704Z,33.70
2018-02-16T05:22:04.173Z,39.30
2018-02-16T05:24:31.599Z,42.10
2018-02-16T05:26:59.061Z,38.50
2018-02-16T05:29:26.506Z,40.97
2018-02-16T05:31:54.009Z,41.30
2018-02-16T05:34:21.428Z,39.83
2018-02-16T05:36:48.909Z,36.73
2018-02-16T05:39:16.344Z,35.27
2018-02-16T05:41:43.799Z,39.23
2018-02-16T05:44:11.243Z,39.77
2018-02-16T05:46:38.685Z,40.20
2018-02-16T05:49:06.120Z,34.83
2018-02-16T05:51:33.561Z,35.47
2018-02-16T05:54:00.998Z,37.80
2018-02-16T05:56:28.490Z,40.57
2018-02-16T05:58:55.921Z,43.93
2018-02-16T06:01:23.400Z,34.70
2018-02-16T06:03:50.849Z,38.77
2018-02-16T06:06:18.290Z,36.00
2018-02-16T06:08:45.721Z,35.70
2018-02-16T06:11:13.161Z,36.70
2018-02-16T06:13:40.657Z,39.80
2018-02-16T06:16:08.120Z,39.43
2018-02-16T06:18:35.597Z,35.17
2018-02-16T06:21:03.310Z,36.90
2018-02-16T06:23:30.741Z,39.90
2018-02-16T06:25:58.203Z,35.27
2018-02-16T06:28:25.651Z,35.33
2018-02-16T06:30:53.073Z,34.67
2018-02-16T06:33:20.605Z,33.40
2018-02-16T06:35:48.073Z,37.27
2018-02-16T06:38:15.544Z,36.03
2018-02-16T06:40:43.176Z,35.70
2018-02-16T06:43:10.721Z,36.67
2018-02-16T06:45:38.844Z,34.90
2018-02-16T06:48:06.301Z,36.53
2018-02-16T06:50:33.779Z,37.53
2018-02-16T06:53:01.233Z,37.47
2018-02-16T06:55:28.683Z,39.17
2018-02-16T06:57:56.444Z,42.47
2018-02-16T07:00:23.966Z,46.50
2018-02-16T07:02:51.428Z,44.37
2018-02-16T07:05:18.915Z,43.10
2018-02-16T07:07:46.386Z,41.33
2018-02-16T07:10:13.873Z,43.60
2018-02-16T07:12:41.342Z,38.77
2018-02-16T07:15:08.802Z,39.87
2018-02-16T07:17:36.215Z,37.40
2018-02-16T07:20:03.667Z,38.30
2018-02-16T07:22:31.109Z,35.33
2018-02-16T07:24:58.642Z,45.93
2018-02-16T07:27:26.094Z,39.03
2018-02-16T07:29:53.551Z,40.50
2018-02-16T07:32:21.052Z,40.57
2018-02-16T07:34:48.462Z,39.67
2018-02-16T07:37:15.888Z,41.07
2018-02-16T07:39:43.739Z,40.27
2018-02-16T07:42:11.187Z,39.30
2018-02-16T07:44:38.642Z,41.87
2018-02-16T07:47:06.116Z,36.27
2018-02-16T07:49:33.546Z,39.00
2018-02-16T07:52:01.008Z,39.60
2018-02-16T07:54:28.434Z,41.83
2018-02-16T07:56:55.881Z,37.90
2018-02-16T07:59:23.433Z,37.30
2018-02-16T08:01:50.867Z,36.20
2018-02-16T08:04:18.306Z,38.07
2018-02-16T08:06:45.717Z,37.33
2018-02-16T08:09:13.172Z,39.37
2018-02-16T08:11:40.774Z,37.80
2018-02-16T08:14:08.288Z,37.30
2018-02-16T08:16:35.738Z,35.57
2018-02-16T08:19:03.478Z,34.87
2018-02-16T08:21:30.943Z,34.17
2018-02-16T08:23:58.403Z,35.17
2018-02-16T08:26:25.830Z,32.80
2018-02-16T08:28:53.288Z,33.57
2018-02-16T08:31:21.067Z,32.87
2018-02-16T08:33:48.589Z,33.40
2018-02-16T08:36:16.022Z,35.30
2018-02-16T08:38:43.473Z,33.20
2018-02-16T08:41:10.923Z,35.30
2018-02-16T08:43:38.370Z,33.30
2018-02-16T08:46:05.850Z,33.17
2018-02-16T08:48:33.393Z,34.80
2018-02-16T08:51:00.934Z,36.63
2018-02-16T08:53:28.415Z,38.43
2018-02-16T08:55:55.872Z,39.67
2018-02-16T08:58:23.322Z,38.47
2018-02-16T09:00:50.769Z,37.87
2018-02-16T09:03:18.208Z,36.50
2018-02-16T09:05:45.685Z,39.53
2018-02-16T09:08:13.127Z,38.87
2018-02-16T09:10:40.588Z,38.20
2018-02-16T09:13:08.010Z,39.73
2018-02-16T09:15:35.484Z,38.53
2018-02-16T09:18:02.930Z,39.60
2018-02-16T09:20:30.450Z,39.10
2018-02-16T09:22:57.920Z,38.37
2018-02-16T09:25:25.346Z,37.50
2018-02-16T09:27:52.806Z,36.73
2018-02-16T09:30:20.343Z,39.57
2018-02-16T09:32:47.869Z,37.17
2018-02-16T09:35:15.331Z,38.63
2018-02-16T09:37:42.978Z,39.00
2018-02-16T09:40:10.722Z,36.83
2018-02-16T09:42:38.204Z,35.77
2018-02-16T09:45:05.649Z,38.37
2018-02-16T09:47:33.129Z,36.80
2018-02-16T09:50:00.663Z,36.40
2018-02-16T09:52:28.118Z,37.27
2018-02-16T09:55:00.576Z,37.43
2018-02-16T09:57:28.077Z,39.63
2018-02-16T09:59:55.528Z,37.13
2018-02-16T10:02:23.027Z,36.07
2018-02-16T10:04:50.553Z,39.20
2018-02-16T10:07:17.892Z,39.30
2018-02-16T10:09:45.382Z,40.00
2018-02-16T10:12:12.813Z,37.43
2018-02-16T10:14:40.454Z,35.60
2018-02-16T10:17:07.872Z,36.20
2018-02-16T10:19:35.285Z,45.73
2018-02-16T10:22:02.827Z,39.27
2018-02-16T10:24:30.280Z,37.50
2018-02-16T10:26:57.751Z,35.53
2018-02-16T10:29:25.237Z,37.30
2018-02-16T10:31:52.760Z,35.97
2018-02-16T10:34:21.042Z,35.27
2018-02-16T10:36:48.591Z,36.47
2018-02-16T10:39:16.097Z,40.83
2018-02-16T10:41:43.918Z,36.43
2018-02-16T10:44:13.144Z,36.97
2018-02-16T10:46:40.595Z,37.03
2018-02-16T10:49:08.027Z,35.80
2018-02-16T10:51:35.522Z,36.47
2018-02-16T10:54:02.956Z,35.43
2018-02-16T10:56:30.464Z,38.07
2018-02-16T10:58:57.974Z,36.53
2018-02-16T11:01:25.426Z,37.87
2018-02-16T11:03:58.840Z,33.43
2018-02-16T11:06:31.993Z,36.13
2018-02-16T11:09:05.017Z,36.83
2018-02-16T11:11:32.571Z,36.67
2018-02-16T11:14:00.027Z,37.67
2018-02-16T11:16:27.499Z,35.80
2018-02-16T11:18:55.063Z,34.73
2018-02-16T11:21:22.471Z,34.40
2018-02-16T11:23:49.981Z,35.30
2018-02-16T11:26:17.380Z,33.87
2018-02-16T11:28:44.901Z,33.00
2018-02-16T11:31:12.371Z,35.30
2018-02-16T11:33:39.833Z,34.27
2018-02-16T11:36:07.259Z,33.73
2018-02-16T11:38:34.759Z,34.80
2018-02-16T11:41:02.167Z,34.73
2018-02-16T11:43:29.623Z,35.97
2018-02-16T11:45:57.055Z,35.70
2018-02-16T11:48:24.509Z,35.67
2018-02-16T11:50:51.944Z,33.50
2018-02-16T11:53:19.505Z,35.90
2018-02-16T11:55:49.355Z,34.47
2018-02-16T11:58:16.800Z,34.87
2018-02-16T12:00:44.261Z,35.37
2018-02-16T12:03:13.129Z,36.10
2018-02-16T12:05:40.676Z,36.50
2018-02-16T12:08:08.197Z,35.03
2018-02-16T12:10:35.623Z,36.83
2018-02-16T12:13:03.108Z,34.90
2018-02-16T12:15:30.591Z,36.80
2018-02-16T12:17:58.026Z,35.87
2018-02-16T12:20:25.500Z,34.17
2018-02-16T12:22:52.918Z,35.90
2018-02-16T12:25:20.540Z,35.17
2018-02-16T12:27:47.996Z,28.93
2018-02-16T12:30:15.468Z,33.50
2018-02-16T12:32:42.887Z,35.27
2018-02-16T12:35:10.312Z,35.67
2018-02-16T12:37:37.852Z,31.40
2018-02-16T12:40:05.297Z,26.53
2018-02-16T12:42:32.733Z,28.17
2018-02-16T12:45:00.251Z,28.97
2018-02-16T12:47:27.707Z,25.10
2018-02-16T12:49:55.168Z,28.83
2018-02-16T12:52:22.605Z,25.63
2018-02-16T12:54:50.033Z,25.90
2018-02-16T12:57:17.599Z,25.67
2018-02-16T12:59:45.011Z,24.87
2018-02-16T13:02:12.579Z,27.00
2018-02-16T13:04:40.024Z,26.23
2018-02-16T13:07:07.606Z,26.17
2018-02-16T13:09:35.063Z,26.53
2018-02-16T13:12:02.477Z,22.10
2018-02-16T13:14:29.961Z,20.90
2018-02-16T13:16:57.444Z,22.27
2018-02-16T13:19:24.873Z,22.30
2018-02-16T13:21:52.305Z,23.47
2018-02-16T13:24:19.786Z,24.27
2018-02-16T13:26:47.198Z,24.77
2018-02-16T13:29:14.691Z,26.27
2018-02-16T13:31:42.121Z,26.87
2018-02-16T13:34:09.661Z,26.27
2018-02-16T13:36:37.105Z,27.20
2018-02-16T13:39:04.558Z,26.30
2018-02-16T13:41:32.020Z,24.70
2018-02-16T13:43:59.477Z,25.37
2018-02-16T13:46:26.919Z,24.40
2018-02-16T13:48:54.350Z,24.13
2018-02-16T13:51:21.824Z,22.37
2018-02-16T13:53:49.484Z,25.37
2018-02-16T13:56:16.896Z,22.27
2018-02-16T13:58:44.370Z,23.57
2018-02-16T14:01:11.799Z,24.73
2018-02-16T14:03:39.224Z,23.63
2018-02-16T14:06:06.672Z,28.30
2018-02-16T14:08:34.100Z,32.23
2018-02-16T14:11:01.561Z,31.23
2018-02-16T14:13:29.055Z,30.77
2018-02-16T14:15:56.491Z,33.90
2018-02-16T14:18:24.028Z,36.60
2018-02-16T14:20:51.612Z,40.37
2018-02-16T14:23:19.077Z,39.30
2018-02-16T14:25:46.765Z,40.40
2018-02-16T14:28:14.280Z,41.53
2018-02-16T14:30:41.876Z,39.47
2018-02-16T14:33:09.496Z,42.20
2018-02-16T14:35:36.914Z,42.23
2018-02-16T14:38:04.635Z,42.33
2018-02-16T14:40:36.256Z,45.13
2018-02-16T14:43:39.535Z,42.27
2018-02-16T14:46:06.976Z,44.10
2018-02-16T14:48:34.633Z,43.87
2018-02-16T14:51:02.051Z,42.10
2018-02-16T14:53:29.528Z,43.23
2018-02-16T14:55:57.026Z,42.80
2018-02-16T14:58:24.460Z,43.60
2018-02-16T15:00:51.902Z,41.60
2018-02-16T15:03:19.421Z,39.47
2018-02-16T15:05:46.906Z,39.80
2018-02-16T15:08:14.347Z,39.97
2018-02-16T15:10:41.782Z,38.07
2018-02-16T15:13:09.212Z,37.50
2018-02-16T15:15:36.681Z,38.37
2018-02-16T15:18:04.114Z,37.33
2018-02-16T15:20:31.589Z,37.47
2018-02-16T15:22:59.028Z,38.70
2018-02-16T15:25:26.487Z,37.23
2018-02-16T15:27:53.962Z,36.03
2018-02-16T15:30:21.639Z,34.00
2018-02-16T15:32:49.130Z,38.47
2018-02-16T15:35:16.594Z,35.37
2018-02-16T15:37:44.168Z,35.37
2018-02-16T15:40:11.636Z,33.83
2018-02-16T15:42:39.076Z,37.00
2018-02-16T15:45:06.530Z,35.07
2018-02-16T15:47:33.951Z,33.10
2018-02-16T15:50:01.652Z,34.53
2018-02-16T15:52:30.183Z,35.97
2018-02-16T15:54:57.604Z,34.80
2018-02-16T15:57:25.104Z,34.80
2018-02-16T15:59:52.763Z,35.63
2018-02-16T16:02:20.201Z,35.90
2018-02-16T16:04:47.625Z,36.20
2018-02-16T16:07:15.156Z,35.10
2018-02-16T16:09:42.617Z,35.27
2018-02-16T16:12:10.051Z,33.47
2018-02-16T16:14:37.509Z,35.67
2018-02-16T16:17:04.956Z,34.70
2018-02-16T16:19:32.380Z,33.37
2018-02-16T16:21:59.902Z,36.47
2018-02-16T16:24:27.319Z,32.57
2018-02-16T16:26:54.841Z,35.40
2018-02-16T16:29:22.262Z,33.93
2018-02-16T16:31:49.723Z,37.00
2018-02-16T16:34:17.896Z,38.20
2018-02-16T16:36:45.333Z,33.97
2018-02-16T16:39:12.822Z,35.90
2018-02-16T16:41:40.280Z,33.30
2018-02-16T16:44:07.786Z,33.03
2018-02-16T16:46:35.264Z,35.60
2018-02-16T16:49:02.855Z,37.73
2018-02-16T16:51:30.260Z,36.43
2018-02-16T16:53:57.717Z,33.60
2018-02-16T16:56:25.219Z,34.27
2018-02-16T16:58:52.685Z,31.77
2018-02-16T17:01:20.103Z,31.30
2018-02-16T17:03:47.692Z,33.07
2018-02-16T17:06:15.126Z,32.87
2018-02-16T17:08:42.684Z,31.30
2018-02-16T17:11:10.217Z,31.10
2018-02-16T17:13:37.645Z,31.63
2018-02-16T17:16:06.066Z,36.10
2018-02-16T17:18:33.521Z,34.50
2018-02-16T17:21:00.983Z,34.00
2018-02-16T17:23:28.451Z,34.97
2018-02-16T17:25:56.054Z,34.53
2018-02-16T17:28:23.503Z,35.23
2018-02-16T17:30:50.973Z,32.43
2018-02-16T17:33:18.672Z,35.40
2018-02-16T17:35:46.888Z,36.07
2018-02-16T17:38:14.372Z,34.40
2018-02-16T17:40:41.837Z,32.60
2018-02-16T17:43:09.337Z,29.63
2018-02-16T17:45:36.784Z,30.80
2018-02-16T17:48:04.399Z,29.90
2018-02-16T17:50:33.106Z,31.10
2018-02-16T17:53:00.694Z,29.17
2018-02-16T17:55:28.544Z,28.60
2018-02-16T17:57:56.035Z,28.93
2018-02-16T18:00:24.120Z,28.50
2018-02-16T18:02:51.649Z,28.90
2018-02-16T18:05:19.954Z,31.20
2018-02-16T18:07:47.656Z,29.87
2018-02-16T18:10:15.306Z,31.10
2018-02-16T18:12:42.755Z,28.13
2018-02-16T18:15:10.285Z,31.60
2018-02-16T18:17:37.834Z,27.63
2018-02-16T18:20:05.392Z,29.60
2018-02-16T18:22:32.848Z,31.43
2018-02-16T18:25:00.341Z,27.80
2018-02-16T18:27:28.354Z,28.27
2018-02-16T18:29:56.307Z,30.07
2018-02-16T18:32:23.758Z,30.77
2018-02-16T18:34:51.321Z,27.03
2018-02-16T18:37:18.855Z,29.70
2018-02-16T18:39:46.461Z,32.27
2018-02-16T18:42:14.568Z,29.80
2018-02-16T18:44:50.259Z,29.90
2018-02-16T18:47:17.688Z,29.40
2018-02-16T18:49:45.163Z,29.03
2018-02-16T18:52:12.620Z,29.20
2018-02-16T18:54:40.155Z,28.10
2018-02-16T18:57:07.638Z,28.03
2018-02-16T18:59:35.165Z,29.37
2018-02-16T19:02:02.597Z,29.10
2018-02-16T19:04:30.063Z,29.20
2018-02-16T19:06:57.516Z,29.03
2018-02-16T19:09:25.275Z,27.43
2018-02-16T19:11:52.724Z,29.57
2018-02-16T19:14:20.173Z,25.80
2018-02-16T19:16:51.865Z,25.27
2018-02-16T19:19:19.383Z,26.60
2018-02-16T19:21:46.840Z,26.63
2018-02-16T19:24:14.302Z,23.90
2018-02-16T19:26:41.732Z,25.43
2018-02-16T19:29:09.232Z,25.87
2018-02-16T19:31:36.713Z,26.93
2018-02-16T19:34:04.172Z,28.03
2018-02-16T19:36:31.838Z,27.23
2018-02-16T19:38:59.335Z,23.87
2018-02-16T19:41:27.060Z,26.00
2018-02-16T19:43:54.557Z,25.70
2018-02-16T19:46:22.003Z,26.50
2018-02-16T19:48:49.528Z,25.97
2018-02-16T19:51:16.988Z,27.80
2018-02-16T19:53:44.418Z,27.17
2018-02-16T19:56:11.886Z,25.87
2018-02-16T19:58:39.317Z,24.73
2018-02-16T20:01:06.769Z,23.93
2018-02-16T20:03:34.225Z,24.40
2018-02-16T20:06:01.700Z,25.10
2018-02-16T20:08:29.198Z,26.57
2018-02-16T20:10:56.681Z,26.93
2018-02-16T20:13:24.166Z,27.60
2018-02-16T20:15:51.636Z,22.73
2018-02-16T20:18:19.094Z,26.17
2018-02-16T20:20:46.539Z,23.10
2018-02-16T20:23:14.023Z,24.87
2018-02-16T20:25:41.511Z,25.80
2018-02-16T20:28:08.968Z,26.40
2018-02-16T20:30:36.449Z,20.60
2018-02-16T20:33:03.863Z,25.30
2018-02-16T20:35:31.413Z,24.50
2018-02-16T20:37:58.900Z,24.80
2018-02-16T20:40:26.359Z,24.90
2018-02-16T20:42:54.384Z,24.80
2018-02-16T20:45:21.887Z,27.13
2018-02-16T20:47:49.320Z,25.50
2018-02-16T20:50:17.017Z,25.63
2018-02-16T20:52:44.483Z,26.87
2018-02-16T20:55:11.957Z,26.03
2018-02-16T20:57:39.393Z,27.33
2018-02-16T21:00:06.884Z,25.67
2018-02-16T21:02:34.296Z,24.53
2018-02-16T21:05:01.846Z,25.20
2018-02-16T21:07:29.273Z,27.80
2018-02-16T21:09:56.720Z,27.20
2018-02-16T21:12:24.534Z,26.40
2018-02-16T21:14:52.086Z,28.63
2018-02-16T21:17:19.525Z,26.77
2018-02-16T21:19:47.160Z,24.73
2018-02-16T21:22:14.665Z,25.67
2018-02-16T21:24:42.841Z,26.80
2018-02-16T21:27:10.338Z,27.50
2018-02-16T21:29:37.793Z,26.73
2018-02-16T21:32:05.615Z,26.77
2018-02-16T21:34:33.833Z,25.47
2018-02-16T21:37:01.350Z,27.97
2018-02-16T21:39:28.821Z,26.63
2018-02-16T21:41:56.384Z,25.43
2018-02-16T21:44:23.921Z,26.20
2018-02-16T21:46:51.423Z,27.13
2018-02-16T21:49:18.884Z,28.20
2018-02-16T21:51:46.343Z,25.80
2018-02-16T21:54:13.824Z,23.10
2018-02-16T21:56:41.393Z,26.17
2018-02-16T21:59:09.051Z,24.77
2018-02-16T22:01:36.607Z,24.50
2018-02-16T22:04:04.158Z,24.00
2018-02-16T22:06:31.591Z,22.03
2018-02-16T22:08:59.046Z,22.53
2018-02-16T22:11:26.476Z,23.40
2018-02-16T22:13:53.964Z,19.30
2018-02-16T22:16:21.410Z,20.87
2018-02-16T22:18:48.875Z,19.50
2018-02-16T22:21:16.309Z,18.40
2018-02-16T22:23:43.738Z,18.90
2018-02-16T22:26:11.231Z,17.83
2018-02-16T22:28:38.712Z,18.57
2018-02-16T22:31:06.159Z,19.57
2018-02-16T22:33:33.622Z,19.50
2018-02-16T22:36:01.106Z,18.20
2018-02-16T22:38:28.592Z,17.80
2018-02-16T22:40:56.048Z,17.57
2018-02-16T22:43:23.467Z,15.73
2018-02-16T22:45:51.065Z,17.30
2018-02-16T22:48:18.669Z,17.47
2018-02-16T22:50:46.101Z,17.43
2018-02-16T22:53:13.520Z,16.57
2018-02-16T22:55:40.981Z,17.00
2018-02-16T22:58:08.416Z,16.10
2018-02-16T23:00:35.864Z,14.77
2018-02-16T23:03:03.305Z,15.40
2018-02-16T23:05:30.754Z,14.67
2018-02-16T23:07:58.206Z,16.47
2018-02-16T23:10:25.641Z,18.03
2018-02-16T23:12:53.075Z,15.40
2018-02-16T23:15:20.532Z,15.60
2018-02-16T23:17:47.965Z,14.20
2018-02-16T23:20:15.391Z,14.33
2018-02-16T23:22:42.863Z,16.30
2018-02-16T23:25:10.255Z,14.60
2018-02-16T23:27:37.704Z,14.70
2018-02-16T23:30:05.153Z,14.57
2018-02-16T23:32:32.566Z,15.93
2018-02-16T23:34:59.993Z,15.87
2018-02-16T23:37:27.438Z,16.33
2018-02-16T23:39:54.875Z,15.93
2018-02-16T23:42:22.287Z,15.20
2018-02-16T23:44:49.700Z,15.63
2018-02-16T23:47:17.140Z,14.43
2018-02-16T23:49:44.553Z,16.10
2018-02-16T23:52:11.991Z,17.47
2018-02-16T23:54:39.429Z,15.93
2018-02-16T23:57:06.856Z,15.70
2018-02-16T23:59:34.288Z,14.47
